createdAt,value
2024-04-03T00:00:49.305Z,9.16
2024-04-03T00:03:41.132Z,9.16
2024-04-03T00:06:13.408Z,9.13
2024-04-03T00:08:44.762Z,9.13
2024-04-03T00:11:16.296Z,9.14
2024-04-03T00:13:47.636Z,9.15
2024-04-03T00:16:21.260Z,9.16
2024-04-03T00:18:52.701Z,9.15
2024-04-03T00:21:24.332Z,9.17
2024-04-03T00:23:56.802Z,9.17
2024-04-03T00:26:30.375Z,9.16
2024-04-03T00:29:01.674Z,9.17
2024-04-03T00:31:32.911Z,9.17
2024-04-03T00:34:04.157Z,9.17
2024-04-03T00:36:35.527Z,9.17
2024-04-03T00:39:07.816Z,9.14
2024-04-03T00:41:41.460Z,9.16
2024-04-03T00:44:12.818Z,9.17
2024-04-03T00:46:44.996Z,9.17
2024-04-03T00:49:19.199Z,9.15
2024-04-03T00:51:50.969Z,9.14
2024-04-03T00:54:23.446Z,9.11
2024-04-03T00:56:54.672Z,9.10
2024-04-03T00:59:26.560Z,9.07
2024-04-03T01:01:58.087Z,9.03
2024-04-03T01:04:29.405Z,9.02
2024-04-03T01:07:03.455Z,8.99
2024-04-03T01:09:38.136Z,8.99
2024-04-03T01:12:10.200Z,8.98
2024-04-03T01:14:41.545Z,8.97
2024-04-03T01:17:13.971Z,8.98
2024-04-03T01:19:47.489Z,8.97
2024-04-03T01:22:18.939Z,8.98
2024-04-03T01:24:50.249Z,8.96
2024-04-03T01:27:21.661Z,8.95
2024-04-03T01:29:53.316Z,8.92
2024-04-03T01:32:25.351Z,8.89
2024-04-03T01:34:56.872Z,8.88
2024-04-03T01:37:28.195Z,8.87
2024-04-03T01:39:59.640Z,8.87
2024-04-03T01:42:33.711Z,8.86
2024-04-03T01:45:05.460Z,8.88
2024-04-03T01:47:37.063Z,8.89
2024-04-03T01:50:08.706Z,8.90
2024-04-03T01:52:40.298Z,8.90
2024-04-03T01:55:14.019Z,8.91
2024-04-03T01:57:45.303Z,8.91
2024-04-03T02:00:16.903Z,8.92
2024-04-03T02:02:48.088Z,8.94
2024-04-03T02:05:21.752Z,8.95
2024-04-03T02:07:53.409Z,8.96
2024-04-03T02:10:24.875Z,8.96
2024-04-03T02:12:57.179Z,8.95
2024-04-03T02:15:28.590Z,8.97
2024-04-03T02:18:00.054Z,8.98
2024-04-03T02:20:31.768Z,8.98
2024-04-03T02:23:05.938Z,8.98
2024-04-03T02:25:38.180Z,8.99
2024-04-03T02:28:09.940Z,9.00
2024-04-03T02:30:41.420Z,9.01
2024-04-03T02:33:13.152Z,9.00
2024-04-03T02:35:44.481Z,8.99
2024-04-03T02:38:18.342Z,8.98
2024-04-03T02:40:51.820Z,8.98
2024-04-03T02:43:25.544Z,8.98
2024-04-03T02:45:58.401Z,8.96
2024-04-03T02:48:29.784Z,8.95
2024-04-03T02:51:05.585Z,8.93
2024-04-03T02:53:38.388Z,8.90
2024-04-03T02:56:12.229Z,8.88
2024-04-03T02:58:44.029Z,8.87
2024-04-03T03:01:17.734Z,8.85
2024-04-03T03:03:48.972Z,8.82
2024-04-03T03:06:20.311Z,8.79
2024-04-03T03:08:55.078Z,8.76
2024-04-03T03:11:26.470Z,8.73
2024-04-03T03:13:57.888Z,8.72
2024-04-03T03:16:31.456Z,8.70
2024-04-03T03:19:02.743Z,8.67
2024-04-03T03:21:34.342Z,8.64
2024-04-03T03:24:06.270Z,8.59
2024-04-03T03:26:38.066Z,8.57
2024-04-03T03:29:09.573Z,8.54
2024-04-03T03:31:41.171Z,8.52
2024-04-03T03:34:12.430Z,8.51
2024-04-03T03:36:43.766Z,8.49
2024-04-03T03:39:15.322Z,8.51
2024-04-03T03:41:46.665Z,8.50
2024-04-03T03:44:18.071Z,8.49
2024-04-03T03:46:51.712Z,8.48
2024-04-03T03:49:43.182Z,8.48
2024-04-03T03:52:32.514Z,8.46
2024-04-03T03:55:06.271Z,8.43
2024-04-03T03:57:37.870Z,8.39
2024-04-03T04:00:12.082Z,8.35
2024-04-03T04:02:43.732Z,8.31
2024-04-03T04:05:15.039Z,8.25
2024-04-03T04:07:46.415Z,8.21
2024-04-03T04:10:18.097Z,8.17
2024-04-03T04:12:49.496Z,8.14
2024-04-03T04:15:20.790Z,8.11
2024-04-03T04:17:53.464Z,8.10
2024-04-03T04:20:25.036Z,8.10
2024-04-03T04:22:56.381Z,8.10
2024-04-03T04:25:27.756Z,8.11
2024-04-03T04:27:59.063Z,8.12
2024-04-03T04:30:30.772Z,8.14
2024-04-03T04:33:04.830Z,8.15
2024-04-03T04:35:36.274Z,8.16
2024-04-03T04:38:08.775Z,8.19
2024-04-03T04:40:40.165Z,8.20
2024-04-03T04:43:11.450Z,8.21
2024-04-03T04:45:43.421Z,8.20
2024-04-03T04:48:14.736Z,8.20
2024-04-03T04:50:53.509Z,8.19
2024-04-03T04:53:25.895Z,8.18
2024-04-03T04:56:00.129Z,8.19
2024-04-03T04:58:32.162Z,8.18
2024-04-03T05:01:08.040Z,8.20
2024-04-03T05:03:39.654Z,8.21
2024-04-03T05:06:18.282Z,8.21
2024-04-03T05:08:49.911Z,8.22
2024-04-03T05:11:21.287Z,8.24
2024-04-03T05:13:53.459Z,8.30
2024-04-03T05:16:25.291Z,8.32
2024-04-03T05:18:56.779Z,8.40
2024-04-03T05:21:30.539Z,8.42
2024-04-03T05:24:01.825Z,8.52
2024-04-03T05:26:34.257Z,8.56
2024-04-03T05:29:06.233Z,8.58
2024-04-03T05:31:39.415Z,8.65
2024-04-03T05:34:10.816Z,8.70
2024-04-03T05:36:42.118Z,8.78
2024-04-03T05:39:13.477Z,8.85
2024-04-03T05:41:44.917Z,8.92
2024-04-03T05:44:16.356Z,8.99
2024-04-03T05:46:47.831Z,9.06
2024-04-03T05:49:19.190Z,9.14
2024-04-03T05:51:50.708Z,9.25
2024-04-03T05:54:23.298Z,9.32
2024-04-03T05:56:54.514Z,9.41
2024-04-03T05:59:25.740Z,9.52
2024-04-03T06:01:57.092Z,9.59
2024-04-03T06:04:28.321Z,9.66
2024-04-03T06:06:59.649Z,9.71
2024-04-03T06:09:33.765Z,9.84
2024-04-03T06:12:05.843Z,9.96
2024-04-03T06:14:39.961Z,10.05
2024-04-03T06:17:12.362Z,10.16
2024-04-03T06:19:43.775Z,10.26
2024-04-03T06:22:15.314Z,10.34
2024-04-03T06:24:46.867Z,10.43
2024-04-03T06:27:18.209Z,10.52
2024-04-03T06:29:49.497Z,10.61
2024-04-03T06:32:20.939Z,10.71
2024-04-03T06:34:53.167Z,10.78
2024-04-03T06:37:24.570Z,10.90
2024-04-03T06:39:55.954Z,10.95
2024-04-03T06:42:27.254Z,10.98
2024-04-03T06:45:00.390Z,10.97
2024-04-03T06:47:31.753Z,10.96
2024-04-03T06:50:03.285Z,10.94
2024-04-03T06:52:35.077Z,10.96
2024-04-03T06:55:07.536Z,10.96
2024-04-03T06:57:39.175Z,10.95
2024-04-03T07:00:13.088Z,10.95
2024-04-03T07:02:44.887Z,10.96
2024-04-03T07:05:16.715Z,10.98
2024-04-03T07:07:48.106Z,11.01
2024-04-03T07:10:21.808Z,11.04
2024-04-03T07:12:53.403Z,11.07
2024-04-03T07:15:25.011Z,11.11
2024-04-03T07:17:56.300Z,11.15
2024-04-03T07:20:30.304Z,11.17
2024-04-03T07:23:02.560Z,11.22
2024-04-03T07:25:34.140Z,11.25
2024-04-03T07:28:14.060Z,11.29
2024-04-03T07:30:45.419Z,11.34
2024-04-03T07:33:17.201Z,11.38
2024-04-03T07:35:48.504Z,11.41
2024-04-03T07:38:20.656Z,11.44
2024-04-03T07:40:54.141Z,11.47
2024-04-03T07:43:25.478Z,11.50
2024-04-03T07:46:00.613Z,11.52
2024-04-03T07:48:34.225Z,11.55
2024-04-03T07:51:06.317Z,11.57
2024-04-03T07:53:37.667Z,11.59
2024-04-03T07:56:10.042Z,11.62
2024-04-03T07:58:41.325Z,11.60
2024-04-03T08:01:13.025Z,11.64
2024-04-03T08:03:45.144Z,11.70
2024-04-03T08:06:17.134Z,11.80
2024-04-03T08:08:51.941Z,11.91
2024-04-03T08:11:23.165Z,12.05
2024-04-03T08:13:54.652Z,12.22
2024-04-03T08:16:26.114Z,12.34
2024-04-03T08:18:57.643Z,12.36
2024-04-03T08:21:29.127Z,12.39
2024-04-03T08:24:02.808Z,12.42
2024-04-03T08:26:34.143Z,12.46
2024-04-03T08:29:05.899Z,12.48
2024-04-03T08:31:38.415Z,12.56
2024-04-03T08:34:17.452Z,12.68
2024-04-03T08:36:48.897Z,12.81
2024-04-03T08:39:20.305Z,12.96
2024-04-03T08:41:55.999Z,13.00
2024-04-03T08:44:30.472Z,12.99
2024-04-03T08:47:05.399Z,13.11
2024-04-03T08:49:38.138Z,13.22
2024-04-03T08:52:11.705Z,13.35
2024-04-03T08:54:44.556Z,13.46
2024-04-03T08:57:18.643Z,13.51
2024-04-03T08:59:50.440Z,13.58
2024-04-03T09:02:21.810Z,13.60
2024-04-03T09:04:56.203Z,13.59
2024-04-03T09:07:27.653Z,13.54
2024-04-03T09:09:59.335Z,13.51
2024-04-03T09:12:30.763Z,13.46
2024-04-03T09:15:12.604Z,13.42
2024-04-03T09:17:44.248Z,13.40
2024-04-03T09:20:25.487Z,13.40
2024-04-03T09:22:57.810Z,13.39
2024-04-03T09:25:30.212Z,13.33
2024-04-03T09:28:06.460Z,13.38
2024-04-03T09:30:41.020Z,13.42
2024-04-03T09:33:13.911Z,13.42
2024-04-03T09:35:45.973Z,13.41
2024-04-03T09:38:17.942Z,13.43
2024-04-03T09:40:51.847Z,13.41
2024-04-03T09:43:27.940Z,13.37
2024-04-03T09:46:07.439Z,13.32
2024-04-03T09:48:40.976Z,13.28
2024-04-03T09:51:12.396Z,13.25
2024-04-03T09:53:44.345Z,13.22
2024-04-03T09:56:17.915Z,13.20
2024-04-03T09:58:51.955Z,13.24
2024-04-03T10:01:31.548Z,13.25
2024-04-03T10:04:07.014Z,13.27
2024-04-03T10:06:43.699Z,13.29
2024-04-03T10:09:18.966Z,13.32
2024-04-03T10:11:53.818Z,13.39
2024-04-03T10:14:29.660Z,13.52
2024-04-03T10:17:01.033Z,13.75
2024-04-03T10:19:35.799Z,13.98
2024-04-03T10:22:09.010Z,14.13
2024-04-03T10:24:40.670Z,14.21
2024-04-03T10:27:12.425Z,14.22
2024-04-03T10:29:43.660Z,14.30
2024-04-03T10:32:17.682Z,14.43
2024-04-03T10:34:49.157Z,14.60
2024-04-03T10:37:23.140Z,14.63
2024-04-03T10:39:56.391Z,14.68
2024-04-03T10:42:31.464Z,14.77
2024-04-03T10:45:04.844Z,14.89
2024-04-03T10:47:37.233Z,15.02
2024-04-03T10:50:09.842Z,15.19
2024-04-03T10:52:41.349Z,15.25
2024-04-03T10:55:14.032Z,15.26
2024-04-03T10:57:46.740Z,15.31
2024-04-03T11:00:18.816Z,15.30
2024-04-03T11:02:50.335Z,15.27
2024-04-03T11:05:22.250Z,15.25
2024-04-03T11:07:53.787Z,15.27
2024-04-03T11:10:26.166Z,15.34
2024-04-03T11:13:07.087Z,15.34
2024-04-03T11:15:40.420Z,15.30
2024-04-03T11:18:11.956Z,15.23
2024-04-03T11:20:43.704Z,15.13
2024-04-03T11:23:17.405Z,15.03
2024-04-03T11:25:49.168Z,14.92
2024-04-03T11:28:22.768Z,14.79
2024-04-03T11:30:54.234Z,14.69
2024-04-03T11:33:25.669Z,14.62
2024-04-03T11:35:57.236Z,14.55
2024-04-03T11:38:32.189Z,14.48
2024-04-03T11:41:03.810Z,14.42
2024-04-03T11:43:35.255Z,14.34
2024-04-03T11:46:14.165Z,14.30
2024-04-03T11:48:55.451Z,14.28
2024-04-03T11:51:27.040Z,14.27
2024-04-03T11:53:58.489Z,14.29
2024-04-03T11:56:30.665Z,14.32
2024-04-03T11:59:02.417Z,14.32
2024-04-03T12:01:34.152Z,14.31
2024-04-03T12:04:06.107Z,14.35
2024-04-03T12:06:40.129Z,14.39
2024-04-03T12:09:12.298Z,14.44
2024-04-03T12:11:43.786Z,14.49
2024-04-03T12:14:15.192Z,14.54
2024-04-03T12:16:53.194Z,14.51
2024-04-03T12:19:45.436Z,14.57
2024-04-03T12:22:17.520Z,14.56
2024-04-03T12:24:49.072Z,14.56
2024-04-03T12:27:20.735Z,14.58
2024-04-03T12:29:53.101Z,14.60
2024-04-03T12:32:25.425Z,14.62
2024-04-03T12:34:58.952Z,14.65
2024-04-03T12:37:46.963Z,14.67
2024-04-03T12:40:23.454Z,14.69
2024-04-03T12:42:54.741Z,14.70
2024-04-03T12:45:26.187Z,14.70
2024-04-03T12:47:58.448Z,14.68
2024-04-03T12:50:29.846Z,14.65
2024-04-03T12:53:02.280Z,14.60
2024-04-03T12:55:33.951Z,14.56
2024-04-03T12:58:05.890Z,14.52
2024-04-03T13:00:38.013Z,14.48
2024-04-03T13:03:12.738Z,14.44
2024-04-03T13:05:50.868Z,14.38
2024-04-03T13:08:23.160Z,14.34
2024-04-03T13:10:54.935Z,14.33
2024-04-03T13:13:27.096Z,14.32
2024-04-03T13:16:04.768Z,14.32
2024-04-03T13:18:36.201Z,14.30
2024-04-03T13:21:08.165Z,14.28
2024-04-03T13:23:39.767Z,14.25
2024-04-03T13:26:12.952Z,14.26
2024-04-03T13:28:44.575Z,14.24
2024-04-03T13:31:15.928Z,14.26
2024-04-03T13:33:48.733Z,14.27
2024-04-03T13:36:20.875Z,14.27
2024-04-03T13:38:53.772Z,14.29
2024-04-03T13:41:25.227Z,14.30
2024-04-03T13:43:59.281Z,14.32
2024-04-03T13:46:30.755Z,14.30
2024-04-03T13:49:02.269Z,14.29
2024-04-03T13:51:34.067Z,14.27
2024-04-03T13:54:07.063Z,14.24
2024-04-03T13:56:39.014Z,14.21
2024-04-03T13:59:10.364Z,14.17
2024-04-03T14:01:41.742Z,14.14
2024-04-03T14:04:13.109Z,14.13
2024-04-03T14:06:44.735Z,14.09
2024-04-03T14:09:17.750Z,14.04
2024-04-03T14:11:49.064Z,14.02
2024-04-03T14:14:20.804Z,13.97
2024-04-03T14:16:54.014Z,13.96
2024-04-03T14:19:27.908Z,13.93
2024-04-03T14:21:59.457Z,13.92
2024-04-03T14:24:33.093Z,13.91
2024-04-03T14:27:05.746Z,13.91
2024-04-03T14:29:37.497Z,13.90
2024-04-03T14:32:10.577Z,13.91
2024-04-03T14:34:42.129Z,13.92
2024-04-03T14:37:13.793Z,13.95
2024-04-03T14:39:45.508Z,13.95
2024-04-03T14:42:17.002Z,13.97
2024-04-03T14:44:48.332Z,13.98
2024-04-03T14:47:19.721Z,13.98
2024-04-03T14:49:51.143Z,13.98
2024-04-03T14:52:23.067Z,13.98
2024-04-03T14:54:54.879Z,13.98
2024-04-03T14:57:26.415Z,13.97
2024-04-03T14:59:57.869Z,13.98
2024-04-03T15:02:29.218Z,13.95
2024-04-03T15:05:00.530Z,13.95
2024-04-03T15:07:35.536Z,13.94
2024-04-03T15:10:08.743Z,13.91
2024-04-03T15:12:40.123Z,13.89
2024-04-03T15:15:11.474Z,13.87
2024-04-03T15:17:45.948Z,13.86
2024-04-03T15:20:17.604Z,13.84
2024-04-03T15:22:49.463Z,13.82
2024-04-03T15:25:20.997Z,13.80
2024-04-03T15:27:54.666Z,13.78
2024-04-03T15:30:26.335Z,13.76
2024-04-03T15:32:58.841Z,13.73
2024-04-03T15:35:30.293Z,13.71
2024-04-03T15:38:01.919Z,13.68
2024-04-03T15:40:33.290Z,13.66
2024-04-03T15:43:04.727Z,13.64
2024-04-03T15:45:39.154Z,13.62
2024-04-03T15:48:11.715Z,13.60
2024-04-03T15:50:46.233Z,13.58
2024-04-03T15:53:17.796Z,13.55
2024-04-03T15:55:49.223Z,13.53
2024-04-03T15:58:20.535Z,13.50
2024-04-03T16:00:51.948Z,13.46
2024-04-03T16:03:23.590Z,13.42
2024-04-03T16:05:56.269Z,13.37
2024-04-03T16:08:28.562Z,13.36
2024-04-03T16:11:00.018Z,13.32
2024-04-03T16:13:31.465Z,13.25
2024-04-03T16:16:02.899Z,13.26
2024-04-03T16:18:35.066Z,13.22
2024-04-03T16:21:07.051Z,13.15
2024-04-03T16:23:38.808Z,13.08
2024-04-03T16:26:10.806Z,12.99
2024-04-03T16:28:44.817Z,12.94
2024-04-03T16:31:16.307Z,12.87
2024-04-03T16:33:47.582Z,12.83
2024-04-03T16:36:21.999Z,12.77
2024-04-03T16:38:53.519Z,12.72
2024-04-03T16:41:24.978Z,12.67
2024-04-03T16:43:56.314Z,12.64
2024-04-03T16:46:27.745Z,12.59
2024-04-03T16:48:59.558Z,12.55
2024-04-03T16:51:31.029Z,12.52
2024-04-03T16:54:02.804Z,12.50
2024-04-03T16:56:34.300Z,12.47
2024-04-03T16:59:05.665Z,12.46
2024-04-03T17:01:38.065Z,12.43
2024-04-03T17:04:09.417Z,12.41
2024-04-03T17:06:41.148Z,12.39
2024-04-03T17:09:13.965Z,12.37
2024-04-03T17:11:45.759Z,12.34
2024-04-03T17:14:17.237Z,12.32
2024-04-03T17:16:51.660Z,12.30
2024-04-03T17:19:23.192Z,12.27
2024-04-03T17:21:54.621Z,12.24
2024-04-03T17:24:28.941Z,12.22
2024-04-03T17:27:01.267Z,12.19
2024-04-03T17:29:32.791Z,12.17
2024-04-03T17:32:04.622Z,12.15
2024-04-03T17:34:37.721Z,12.13
2024-04-03T17:37:09.297Z,12.12
2024-04-03T17:39:43.369Z,12.10
2024-04-03T17:42:15.269Z,12.08
2024-04-03T17:44:46.925Z,12.05
2024-04-03T17:47:20.285Z,12.03
2024-04-03T17:49:51.926Z,11.99
2024-04-03T17:52:23.719Z,11.96
2024-04-03T17:54:54.979Z,11.91
2024-04-03T17:57:27.548Z,11.88
2024-04-03T18:00:01.941Z,11.83
2024-04-03T18:02:33.422Z,11.79
2024-04-03T18:05:04.932Z,11.74
2024-04-03T18:07:41.285Z,11.71
2024-04-03T18:10:16.137Z,11.66
2024-04-03T18:12:48.248Z,11.60
2024-04-03T18:15:20.301Z,11.53
2024-04-03T18:17:54.417Z,11.54
2024-04-03T18:20:26.156Z,11.50
2024-04-03T18:22:57.900Z,11.46
2024-04-03T18:25:29.214Z,11.40
2024-04-03T18:28:00.566Z,11.35
2024-04-03T18:30:34.950Z,11.30
2024-04-03T18:33:07.230Z,11.26
2024-04-03T18:35:38.639Z,11.22
2024-04-03T18:38:10.949Z,11.19
2024-04-03T18:40:42.317Z,11.16
2024-04-03T18:43:13.723Z,11.11
2024-04-03T18:45:45.101Z,11.09
2024-04-03T18:48:19.495Z,11.05
2024-04-03T18:50:51.923Z,11.04
2024-04-03T18:53:23.905Z,11.01
2024-04-03T18:55:55.494Z,10.99
2024-04-03T18:58:28.527Z,10.96
2024-04-03T19:01:09.448Z,10.94
2024-04-03T19:03:41.132Z,10.91
2024-04-03T19:06:13.691Z,10.88
2024-04-03T19:08:45.035Z,10.83
2024-04-03T19:11:16.572Z,10.79
2024-04-03T19:13:48.662Z,10.74
2024-04-03T19:16:20.690Z,10.70
2024-04-03T19:18:52.218Z,10.65
2024-04-03T19:21:23.866Z,10.61
2024-04-03T19:23:55.100Z,10.58
2024-04-03T19:26:26.798Z,10.53
2024-04-03T19:28:58.138Z,10.49
2024-04-03T19:31:30.310Z,10.48
2024-04-03T19:34:01.784Z,10.39
2024-04-03T19:36:34.264Z,10.41
2024-04-03T19:39:08.654Z,10.40
2024-04-03T19:41:40.356Z,10.37
2024-04-03T19:44:12.189Z,10.37
2024-04-03T19:46:43.656Z,10.35
2024-04-03T19:49:17.994Z,10.34
2024-04-03T19:51:49.899Z,10.33
2024-04-03T19:54:22.655Z,10.35
2024-04-03T19:56:53.984Z,10.36
2024-04-03T19:59:28.567Z,10.35
2024-04-03T20:02:02.249Z,10.32
2024-04-03T20:04:36.870Z,10.34
2024-04-03T20:07:10.784Z,10.34
2024-04-03T20:09:42.363Z,10.33
2024-04-03T20:12:14.503Z,10.32
2024-04-03T20:14:46.614Z,10.31
2024-04-03T20:17:21.257Z,10.28
2024-04-03T20:19:55.727Z,10.26
2024-04-03T20:22:27.268Z,10.21
2024-04-03T20:25:00.333Z,10.14
2024-04-03T20:27:32.826Z,10.07
2024-04-03T20:30:06.891Z,10.00
2024-04-03T20:32:39.039Z,9.95
2024-04-03T20:35:13.244Z,9.91
2024-04-03T20:37:45.253Z,9.90
2024-04-03T20:40:17.247Z,9.88
2024-04-03T20:42:48.606Z,9.87
2024-04-03T20:45:20.256Z,9.87
2024-04-03T20:47:52.739Z,9.87
2024-04-03T20:50:24.606Z,9.88
2024-04-03T20:52:56.060Z,9.90
2024-04-03T20:55:29.295Z,9.90
2024-04-03T20:58:02.048Z,9.89
2024-04-03T21:00:33.853Z,9.88
2024-04-03T21:03:05.813Z,9.86
2024-04-03T21:05:37.324Z,9.86
2024-04-03T21:08:09.386Z,9.87
2024-04-03T21:10:40.850Z,9.87
2024-04-03T21:13:12.109Z,9.86
2024-04-03T21:15:43.426Z,9.86
2024-04-03T21:18:14.903Z,9.83
2024-04-03T21:20:46.522Z,9.84
2024-04-03T21:23:18.036Z,9.82
2024-04-03T21:25:49.427Z,9.82
2024-04-03T21:28:24.335Z,9.81
2024-04-03T21:31:05.341Z,9.77
2024-04-03T21:33:36.765Z,9.78
2024-04-03T21:36:08.938Z,9.77
2024-04-03T21:38:40.167Z,9.75
2024-04-03T21:41:11.468Z,9.75
2024-04-03T21:43:44.234Z,9.74
2024-04-03T21:46:16.374Z,9.73
2024-04-03T21:48:47.802Z,9.73
2024-04-03T21:51:19.115Z,9.73
2024-04-03T21:53:50.539Z,9.72
2024-04-03T21:56:21.922Z,9.72
2024-04-03T21:58:53.278Z,9.72
2024-04-03T22:01:27.216Z,9.72
2024-04-03T22:04:03.081Z,9.72
2024-04-03T22:06:36.900Z,9.73
2024-04-03T22:09:08.540Z,9.73
2024-04-03T22:11:40.365Z,9.72
2024-04-03T22:14:11.691Z,9.73
2024-04-03T22:16:43.385Z,9.73
2024-04-03T22:19:14.820Z,9.72
2024-04-03T22:21:46.126Z,9.72
2024-04-03T22:24:17.491Z,9.71
2024-04-03T22:26:49.004Z,9.70
2024-04-03T22:29:20.347Z,9.71
2024-04-03T22:31:51.706Z,9.70
2024-04-03T22:34:22.993Z,9.68
2024-04-03T22:36:54.946Z,9.67
2024-04-03T22:39:26.761Z,9.67
2024-04-03T22:41:59.153Z,9.66
2024-04-03T22:44:30.806Z,9.66
2024-04-03T22:47:02.443Z,9.64
2024-04-03T22:49:33.949Z,9.63
2024-04-03T22:52:05.865Z,9.62
2024-04-03T22:54:37.226Z,9.61
2024-04-03T22:57:13.550Z,9.61
2024-04-03T22:59:45.208Z,9.61
2024-04-03T23:02:16.588Z,9.60
2024-04-03T23:04:48.327Z,9.61
2024-04-03T23:07:20.174Z,9.61
2024-04-03T23:09:51.796Z,9.61
2024-04-03T23:12:23.119Z,9.61
2024-04-03T23:14:54.584Z,9.60
2024-04-03T23:17:28.491Z,9.60
2024-04-03T23:20:00.057Z,9.59
2024-04-03T23:22:31.611Z,9.58
2024-04-03T23:25:06.292Z,9.59
2024-04-03T23:27:37.888Z,9.58
2024-04-03T23:30:10.750Z,9.58
2024-04-03T23:32:42.053Z,9.56
2024-04-03T23:35:13.576Z,9.55
2024-04-03T23:37:47.039Z,9.53
2024-04-03T23:40:18.977Z,9.54
2024-04-03T23:42:50.455Z,9.52
2024-04-03T23:45:24.522Z,9.53
2024-04-03T23:47:56.424Z,9.52
2024-04-03T23:50:27.940Z,9.52
2024-04-03T23:52:59.323Z,9.53
2024-04-03T23:55:30.813Z,9.53
2024-04-03T23:58:02.099Z,9.52
